Time;durP1;ratioP1;P1;durP2;ratioP2;P2;SDS_P1;SDS_P2;PMS_P1;PMS_P2;Temp;Humidity;BMP_temperature;BMP_pressure;BME280_temperature;BME280_humidity;BME280_pressure;Samples;Min_cycle;Max_cycle;Signal;HPM_P1;HPM_P2
2021/12/25 00:00:27;;;;;;;2.53;1.85;;;;;;;;;;5041690;28;20098;-31
2021/12/25 00:02:53;;;;;;;2.42;1.90;;;;;;;;;;5041479;28;20052;-32
2021/12/25 00:05:19;;;;;;;2.75;2.10;;;;;;;;;;5043674;28;20029;-31
2021/12/25 00:07:45;;;;;;;2.47;2.03;;;;;;;;;;5043258;28;20064;-31
2021/12/25 00:10:10;;;;;;;2.50;1.73;;;;;;;;;;5043081;28;20096;-30
2021/12/25 00:12:36;;;;;;;2.47;1.80;;;;;;;;;;5043496;28;20119;-34
2021/12/25 00:15:02;;;;;;;2.33;1.75;;;;;;;;;;5042983;28;20025;-34
2021/12/25 00:17:27;;;;;;;3.25;2.05;;;;;;;;;;5043259;28;20078;-29
2021/12/25 00:19:53;;;;;;;3.40;2.10;;;;;;;;;;5042922;28;20017;-32
2021/12/25 00:22:19;;;;;;;2.75;1.83;;;;;;;;;;5043149;28;20029;-31
2021/12/25 00:24:45;;;;;;;2.90;2.10;;;;;;;;;;5043040;28;20515;-31
2021/12/25 00:30:20;;;;;;;2.38;1.80;;;;;;;;;;5043021;28;20029;-34
2021/12/25 00:32:47;;;;;;;2.03;1.63;;;;;;;;;;5042995;28;20507;-30
2021/12/25 00:35:13;;;;;;;2.47;1.83;;;;;;;;;;5042910;28;20375;-31
2021/12/25 00:37:38;;;;;;;4.00;2.35;;;;;;;;;;5043117;28;20507;-29
2021/12/25 00:40:04;;;;;;;3.53;2.20;;;;;;;;;;5042543;28;20122;-32
2021/12/25 00:42:30;;;;;;;2.80;2.08;;;;;;;;;;5042523;28;20068;-31
2021/12/25 00:44:56;;;;;;;3.22;2.05;;;;;;;;;;5042797;28;20029;-29
2021/12/25 00:47:21;;;;;;;2.78;2.17;;;;;;;;;;5042722;28;20049;-29
2021/12/25 00:49:47;;;;;;;3.03;2.25;;;;;;;;;;5043031;28;20055;-30
2021/12/25 00:52:13;;;;;;;3.13;2.10;;;;;;;;;;5042473;28;20507;-34
2021/12/25 00:54:39;;;;;;;3.05;1.92;;;;;;;;;;5042871;28;20459;-33
2021/12/25 00:57:04;;;;;;;2.83;2.13;;;;;;;;;;5042560;28;20059;-32
2021/12/25 00:59:30;;;;;;;3.60;2.20;;;;;;;;;;5042582;28;20068;-29
2021/12/25 01:01:55;;;;;;;2.88;2.33;;;;;;;;;;5042676;28;20071;-30
2021/12/25 01:04:21;;;;;;;2.75;2.20;;;;;;;;;;5042505;28;20140;-30
2021/12/25 01:06:46;;;;;;;2.95;2.20;;;;;;;;;;5042825;28;20021;-30
2021/12/25 01:09:12;;;;;;;3.17;2.30;;;;;;;;;;5042911;28;20021;-31
2021/12/25 01:11:38;;;;;;;3.42;2.40;;;;;;;;;;5042620;28;20103;-34
2021/12/25 01:14:12;;;;;;;2.80;2.10;;;;;;;;;;5042531;28;20087;-34
2021/12/25 01:22:26;;;;;;;2.92;1.90;;;;;;;;;;5022348;28;20088;-33
2021/12/25 01:37:40;;;;;;;3.85;2.58;;;;;;;;;;5042419;28;20037;-32
2021/12/25 01:48:00;;;;;;;4.05;2.70;;;;;;;;;;5033338;28;20581;-31
2021/12/25 01:50:26;;;;;;;3.50;2.67;;;;;;;;;;5022286;28;20025;-30
2021/12/25 01:52:53;;;;;;;3.03;2.10;;;;;;;;;;5022631;28;20206;-31
2021/12/25 01:55:24;;;;;;;4.18;2.70;;;;;;;;;;5032428;28;20036;-29
2021/12/25 01:57:49;;;;;;;4.18;2.72;;;;;;;;;;5041910;28;20572;-32
2021/12/25 02:00:20;;;;;;;2.92;2.30;;;;;;;;;;5043586;28;20033;-30
2021/12/25 02:02:46;;;;;;;3.33;2.50;;;;;;;;;;5045451;28;20028;-32
2021/12/25 02:05:11;;;;;;;2.95;2.38;;;;;;;;;;5045667;28;20060;-31
2021/12/25 02:07:37;;;;;;;2.85;2.30;;;;;;;;;;5045794;28;20043;-33
2021/12/25 02:10:04;;;;;;;2.65;2.38;;;;;;;;;;5045408;28;20025;-32
2021/12/25 02:12:29;;;;;;;3.13;2.15;;;;;;;;;;5045354;28;20406;-28
2021/12/25 02:14:56;;;;;;;3.33;2.63;;;;;;;;;;5045342;28;20021;-30
2021/12/25 02:17:35;;;;;;;3.17;2.50;;;;;;;;;;5045834;28;20029;-35
2021/12/25 02:20:09;;;;;;;3.05;2.47;;;;;;;;;;5045496;28;20025;-30
2021/12/25 02:22:35;;;;;;;3.28;2.20;;;;;;;;;;5045081;28;20032;-29
2021/12/25 02:25:01;;;;;;;2.90;2.35;;;;;;;;;;5045259;28;20047;-34
2021/12/25 02:27:26;;;;;;;2.90;2.28;;;;;;;;;;5045562;28;20040;-34
2021/12/25 02:29:52;;;;;;;2.97;2.25;;;;;;;;;;5044797;28;20846;-31
2021/12/25 02:32:17;;;;;;;3.40;2.30;;;;;;;;;;5045102;28;20029;-32
2021/12/25 02:34:43;;;;;;;2.35;2.03;;;;;;;;;;5045078;28;20032;-31
2021/12/25 02:37:08;;;;;;;2.78;2.10;;;;;;;;;;5044833;28;20045;-30
2021/12/25 02:39:34;;;;;;;3.17;2.58;;;;;;;;;;5045092;28;20082;-28
2021/12/25 02:41:59;;;;;;;3.38;2.60;;;;;;;;;;5026874;28;20033;-34
2021/12/25 02:44:25;;;;;;;2.38;2.05;;;;;;;;;;5045031;28;20040;-32
2021/12/25 02:46:54;;;;;;;3.15;2.28;;;;;;;;;;5044804;28;20098;-30
2021/12/25 02:49:20;;;;;;;2.85;2.22;;;;;;;;;;5044789;28;20029;-32
2021/12/25 02:51:46;;;;;;;2.10;1.90;;;;;;;;;;5045098;28;20032;-32
2021/12/25 02:54:12;;;;;;;3.70;2.72;;;;;;;;;;5044413;28;20623;-28
2021/12/25 02:56:37;;;;;;;3.38;2.38;;;;;;;;;;5045121;28;20028;-32
2021/12/25 02:59:03;;;;;;;2.85;2.25;;;;;;;;;;5043933;28;20487;-33
2021/12/25 03:01:28;;;;;;;3.05;2.22;;;;;;;;;;5045218;28;20021;-33
2021/12/25 03:03:54;;;;;;;3.10;2.30;;;;;;;;;;5044679;28;20064;-31
2021/12/25 03:06:19;;;;;;;3.15;2.38;;;;;;;;;;5044597;28;20753;-32
2021/12/25 03:08:45;;;;;;;2.60;1.80;;;;;;;;;;5044470;28;20222;-31
2021/12/25 03:11:13;;;;;;;3.33;2.40;;;;;;;;;;5043256;28;20402;-29
2021/12/25 03:13:56;;;;;;;3.05;2.05;;;;;;;;;;5044524;28;20475;-33
2021/12/25 03:16:22;;;;;;;4.00;2.40;;;;;;;;;;5044356;28;20024;-30
2021/12/25 03:18:51;;;;;;;2.53;2.17;;;;;;;;;;5044285;28;20025;-32
2021/12/25 03:21:17;;;;;;;3.35;2.35;;;;;;;;;;5044051;28;20780;-32
2021/12/25 03:23:43;;;;;;;3.00;2.10;;;;;;;;;;5044090;28;20075;-29
2021/12/25 03:26:09;;;;;;;2.75;2.05;;;;;;;;;;5044003;28;20025;-31
2021/12/25 03:28:40;;;;;;;2.53;1.90;;;;;;;;;;5043994;28;20027;-35
2021/12/25 03:31:13;;;;;;;2.83;2.00;;;;;;;;;;5044124;28;20056;-29
2021/12/25 03:33:39;;;;;;;3.08;2.17;;;;;;;;;;5043813;28;20487;-28
2021/12/25 03:36:04;;;;;;;2.45;1.95;;;;;;;;;;5043826;28;20033;-31
2021/12/25 03:38:30;;;;;;;3.05;2.00;;;;;;;;;;5043820;28;20112;-31
2021/12/25 03:40:56;;;;;;;3.42;2.28;;;;;;;;;;5043951;28;20033;-34
2021/12/25 03:43:21;;;;;;;1.92;1.73;;;;;;;;;;5043927;28;20082;-29
2021/12/25 03:45:47;;;;;;;1.92;1.73;;;;;;;;;;5043521;28;20487;-29
2021/12/25 03:58:49;;;;;;;3.17;1.90;;;;;;;;;;5043645;28;20042;-29
2021/12/25 04:04:04;;;;;;;2.67;2.05;;;;;;;;;;5023508;28;20037;-30
2021/12/25 04:06:30;;;;;;;2.97;1.90;;;;;;;;;;5023605;28;20037;-32
2021/12/25 04:08:57;;;;;;;2.30;1.92;;;;;;;;;;5023325;28;20104;-29
2021/12/25 04:11:31;;;;;;;2.53;1.88;;;;;;;;;;5023343;28;20075;-30
2021/12/25 04:13:57;;;;;;;2.38;1.80;;;;;;;;;;5023439;28;20036;-32
2021/12/25 04:16:23;;;;;;;2.42;1.83;;;;;;;;;;5023588;28;20033;-33
2021/12/25 04:18:48;;;;;;;2.17;1.65;;;;;;;;;;5023450;28;20423;-30
2021/12/25 04:21:14;;;;;;;2.33;1.80;;;;;;;;;;5022957;28;20029;-30
2021/12/25 04:23:42;;;;;;;2.35;1.80;;;;;;;;;;5022981;28;20044;-32
2021/12/25 04:26:08;;;;;;;2.45;1.83;;;;;;;;;;5023117;28;20034;-30
2021/12/25 04:50:29;;;;;;;2.33;1.75;;;;;;;;;;5022981;28;20565;-30
2021/12/25 05:03:55;;;;;;;2.50;1.90;;;;;;;;;;5022461;28;20048;-30
2021/12/25 05:06:23;;;;;;;3.38;2.08;;;;;;;;;;5022861;28;20033;-32
2021/12/25 05:08:50;;;;;;;2.55;1.70;;;;;;;;;;5022861;28;20132;-35
2021/12/25 05:11:15;;;;;;;2.90;2.13;;;;;;;;;;5022689;28;20033;-31
2021/12/25 05:13:42;;;;;;;2.35;2.00;;;;;;;;;;5023211;28;20036;-34
2021/12/25 05:16:07;;;;;;;3.28;2.10;;;;;;;;;;5022563;28;20505;-31
2021/12/25 05:18:33;;;;;;;2.38;1.88;;;;;;;;;;5022775;28;20033;-31
2021/12/25 05:20:58;;;;;;;2.92;1.95;;;;;;;;;;5022830;28;20104;-32
2021/12/25 05:23:24;;;;;;;2.33;1.70;;;;;;;;;;5022559;28;20033;-32
2021/12/25 05:25:50;;;;;;;3.25;2.33;;;;;;;;;;5022841;28;20376;-30
2021/12/25 05:28:23;;;;;;;2.83;2.05;;;;;;;;;;5020879;28;20577;-35
2021/12/25 05:30:49;;;;;;;2.83;2.10;;;;;;;;;;5022717;28;20101;-33
2021/12/25 05:33:15;;;;;;;3.30;2.15;;;;;;;;;;5022351;28;20112;-30
2021/12/25 05:35:40;;;;;;;2.50;1.98;;;;;;;;;;5023849;28;20037;-29
2021/12/25 05:38:13;;;;;;;2.67;1.92;;;;;;;;;;5026874;28;20021;-32
2021/12/25 05:40:38;;;;;;;2.38;1.80;;;;;;;;;;5026426;28;20511;-33
2021/12/25 05:43:04;;;;;;;2.40;2.00;;;;;;;;;;5026542;28;20094;-32
2021/12/25 05:45:29;;;;;;;2.45;1.90;;;;;;;;;;5026223;28;20348;-31
2021/12/25 05:47:55;;;;;;;2.83;2.10;;;;;;;;;;5025629;28;20033;-30
2021/12/25 05:50:22;;;;;;;2.78;2.00;;;;;;;;;;5024930;28;20029;-34
2021/12/25 05:52:48;;;;;;;2.17;1.70;;;;;;;;;;5026245;28;20519;-34
2021/12/25 05:55:13;;;;;;;2.75;2.05;;;;;;;;;;5045742;28;20110;-34
2021/12/25 05:57:39;;;;;;;2.58;1.83;;;;;;;;;;5045573;28;20412;-30
2021/12/25 06:00:06;;;;;;;2.67;1.90;;;;;;;;;;5045276;28;20538;-33
2021/12/25 06:02:31;;;;;;;2.80;2.17;;;;;;;;;;5043959;28;20028;-29
2021/12/25 06:04:57;;;;;;;3.25;1.90;;;;;;;;;;5045894;28;20025;-30
2021/12/25 06:07:22;;;;;;;3.13;2.20;;;;;;;;;;5045304;28;20053;-32
2021/12/25 06:09:48;;;;;;;2.95;2.25;;;;;;;;;;5045447;28;20145;-32
2021/12/25 06:12:14;;;;;;;2.20;1.88;;;;;;;;;;5045717;28;20068;-29
2021/12/25 06:14:41;;;;;;;2.70;1.85;;;;;;;;;;5045508;28;20115;-32
2021/12/25 06:17:07;;;;;;;2.63;2.00;;;;;;;;;;5045434;28;20072;-31
2021/12/25 06:19:32;;;;;;;3.70;2.47;;;;;;;;;;5044113;28;20057;-30
2021/12/25 06:21:58;;;;;;;2.95;2.10;;;;;;;;;;5043753;28;20812;-31
2021/12/25 06:24:25;;;;;;;2.10;1.90;;;;;;;;;;5045298;28;20025;-32
2021/12/25 06:26:51;;;;;;;2.92;1.92;;;;;;;;;;5030231;28;20079;-30
2021/12/25 06:29:19;;;;;;;2.40;1.85;;;;;;;;;;5025366;28;20629;-31
2021/12/25 06:31:45;;;;;;;2.88;2.22;;;;;;;;;;5024858;28;20034;-36
2021/12/25 06:34:11;;;;;;;2.92;2.15;;;;;;;;;;5025408;28;20038;-32
2021/12/25 06:36:36;;;;;;;2.90;2.28;;;;;;;;;;5025117;28;20026;-31
2021/12/25 06:39:03;;;;;;;2.97;1.88;;;;;;;;;;5025536;28;20071;-32
2021/12/25 06:41:29;;;;;;;2.55;2.17;;;;;;;;;;5024862;28;20032;-31
2021/12/25 06:43:55;;;;;;;3.10;2.17;;;;;;;;;;5024995;28;20034;-33
2021/12/25 06:46:20;;;;;;;2.55;2.10;;;;;;;;;;5025430;28;20030;-33
2021/12/25 06:48:46;;;;;;;2.63;2.20;;;;;;;;;;5025193;28;20037;-33
2021/12/25 06:51:11;;;;;;;3.10;2.25;;;;;;;;;;5025349;28;20033;-33
2021/12/25 06:53:37;;;;;;;2.92;2.20;;;;;;;;;;5024921;28;20498;-31
2021/12/25 06:56:03;;;;;;;2.35;1.88;;;;;;;;;;5025041;28;20025;-32
2021/12/25 06:58:29;;;;;;;2.88;2.17;;;;;;;;;;5025154;28;20092;-30
2021/12/25 07:00:54;;;;;;;2.83;2.20;;;;;;;;;;5025093;28;20025;-33
2021/12/25 07:03:20;;;;;;;3.10;2.17;;;;;;;;;;5024702;28;20500;-33
2021/12/25 07:05:45;;;;;;;2.65;1.90;;;;;;;;;;5024593;28;20021;-31
2021/12/25 07:08:11;;;;;;;2.97;2.53;;;;;;;;;;5024443;28;20152;-33
2021/12/25 07:10:36;;;;;;;2.30;1.88;;;;;;;;;;5024706;28;20033;-32
2021/12/25 07:13:02;;;;;;;2.95;2.20;;;;;;;;;;5024379;28;20433;-31
2021/12/25 07:15:28;;;;;;;3.03;2.20;;;;;;;;;;5024279;28;20116;-31
2021/12/25 07:17:53;;;;;;;3.55;2.50;;;;;;;;;;5024332;28;20041;-30
2021/12/25 07:20:18;;;;;;;3.22;2.35;;;;;;;;;;5024529;28;20056;-30
2021/12/25 07:22:44;;;;;;;3.50;2.47;;;;;;;;;;5024509;28;20491;-29
2021/12/25 07:25:10;;;;;;;3.38;2.63;;;;;;;;;;5042609;28;20068;-34
2021/12/25 07:27:35;;;;;;;2.60;2.13;;;;;;;;;;5044277;28;20028;-34
2021/12/25 07:30:04;;;;;;;3.90;2.90;;;;;;;;;;5044269;28;20036;-35
2021/12/25 07:32:29;;;;;;;3.17;2.55;;;;;;;;;;5035237;28;20026;-30
2021/12/25 07:34:56;;;;;;;3.88;2.83;;;;;;;;;;5024518;28;20034;-32
2021/12/25 07:37:21;;;;;;;3.97;2.75;;;;;;;;;;5024063;28;20029;-32
2021/12/25 07:39:46;;;;;;;3.92;2.97;;;;;;;;;;5024165;28;20037;-30
2021/12/25 07:42:12;;;;;;;3.58;2.90;;;;;;;;;;5024197;28;20033;-33
2021/12/25 07:44:38;;;;;;;3.50;3.00;;;;;;;;;;5023951;28;20792;-31
2021/12/25 07:47:08;;;;;;;3.28;2.60;;;;;;;;;;5023512;28;20116;-30
2021/12/25 07:49:34;;;;;;;4.22;3.33;;;;;;;;;;5023937;28;20076;-36
2021/12/25 07:51:59;;;;;;;4.20;3.00;;;;;;;;;;5024154;28;20112;-29
2021/12/25 07:54:25;;;;;;;3.95;3.20;;;;;;;;;;5023930;28;20795;-31
2021/12/25 07:56:51;;;;;;;3.67;2.90;;;;;;;;;;5023567;28;20037;-34
2021/12/25 07:59:16;;;;;;;4.55;3.67;;;;;;;;;;5030061;28;20122;-31
2021/12/25 08:01:42;;;;;;;3.65;2.80;;;;;;;;;;5043325;28;20085;-32
2021/12/25 08:04:09;;;;;;;4.47;3.40;;;;;;;;;;5043844;28;20562;-33
2021/12/25 08:06:35;;;;;;;3.72;3.03;;;;;;;;;;5043280;28;20048;-30
2021/12/25 08:09:01;;;;;;;3.97;3.28;;;;;;;;;;5043228;28;20049;-30
2021/12/25 08:11:27;;;;;;;3.63;2.90;;;;;;;;;;5043374;28;20138;-30
2021/12/25 08:13:53;;;;;;;4.00;3.17;;;;;;;;;;5043508;28;20033;-34
2021/12/25 08:16:19;;;;;;;4.55;3.42;;;;;;;;;;5042910;28;20077;-32
2021/12/25 08:18:44;;;;;;;4.35;3.20;;;;;;;;;;5043371;28;20036;-33
2021/12/25 08:21:10;;;;;;;4.80;3.45;;;;;;;;;;5043201;28;20043;-32
2021/12/25 08:23:36;;;;;;;4.00;3.40;;;;;;;;;;5043199;28;20124;-30
2021/12/25 08:26:05;;;;;;;3.95;3.13;;;;;;;;;;5042912;28;20582;-33
2021/12/25 08:28:31;;;;;;;4.30;3.17;;;;;;;;;;5043097;28;20112;-33
2021/12/25 08:30:56;;;;;;;4.78;3.58;;;;;;;;;;5043136;28;20431;-30
2021/12/25 08:33:22;;;;;;;4.63;3.60;;;;;;;;;;5043215;28;20041;-35
2021/12/25 08:35:48;;;;;;;4.25;3.22;;;;;;;;;;5042924;28;20411;-31
2021/12/25 08:38:14;;;;;;;4.43;3.20;;;;;;;;;;5058254;28;20039;-29
2021/12/25 08:40:40;;;;;;;4.38;3.25;;;;;;;;;;5042726;28;20048;-29
2021/12/25 08:43:05;;;;;;;4.90;3.38;;;;;;;;;;5042961;28;20719;-35
2021/12/25 08:45:59;;;;;;;3.78;2.92;;;;;;;;;;5042331;28;20025;-30
2021/12/25 08:48:26;;;;;;;4.13;3.33;;;;;;;;;;5042880;28;20543;-30
2021/12/25 08:50:56;;;;;;;3.90;3.47;;;;;;;;;;5042683;28;20028;-33
2021/12/25 08:53:22;;;;;;;4.13;3.40;;;;;;;;;;5042630;28;20017;-29
2021/12/25 08:55:48;;;;;;;4.18;3.33;;;;;;;;;;5042506;28;20632;-32
2021/12/25 08:58:14;;;;;;;4.30;3.13;;;;;;;;;;5042528;28;20520;-30
2021/12/25 09:00:40;;;;;;;3.78;3.20;;;;;;;;;;5028587;28;20044;-35
2021/12/25 09:03:06;;;;;;;3.97;3.25;;;;;;;;;;5042580;28;20029;-31
2021/12/25 09:05:32;;;;;;;4.47;3.35;;;;;;;;;;5042896;28;20028;-30
2021/12/25 09:07:58;;;;;;;4.07;3.10;;;;;;;;;;5042500;28;20240;-32
2021/12/25 09:10:24;;;;;;;4.68;3.03;;;;;;;;;;5044939;28;20453;-33
2021/12/25 09:12:50;;;;;;;4.70;3.28;;;;;;;;;;5046504;28;20107;-34
2021/12/25 09:15:16;;;;;;;4.47;3.42;;;;;;;;;;5046869;28;20747;-30
2021/12/25 09:17:42;;;;;;;4.35;3.55;;;;;;;;;;5046655;28;20120;-31
2021/12/25 09:20:08;;;;;;;4.30;3.22;;;;;;;;;;5046334;28;20047;-35
2021/12/25 09:22:34;;;;;;;4.30;3.40;;;;;;;;;;5046572;28;20040;-31
2021/12/25 09:25:00;;;;;;;4.45;3.28;;;;;;;;;;5046882;28;20470;-29
2021/12/25 09:27:25;;;;;;;4.03;3.20;;;;;;;;;;5046116;28;20423;-34
2021/12/25 09:29:51;;;;;;;4.80;3.45;;;;;;;;;;5046939;28;20035;-34
2021/12/25 09:32:16;;;;;;;4.45;3.35;;;;;;;;;;5046644;28;20498;-33
2021/12/25 09:34:42;;;;;;;4.85;3.33;;;;;;;;;;5046506;28;20040;-32
2021/12/25 09:37:07;;;;;;;5.32;3.75;;;;;;;;;;5046218;28;20033;-34
2021/12/25 09:39:33;;;;;;;5.13;3.85;;;;;;;;;;5046361;28;20093;-33
2021/12/25 09:41:59;;;;;;;4.03;3.53;;;;;;;;;;5046104;28;20028;-31
2021/12/25 09:44:24;;;;;;;5.10;3.30;;;;;;;;;;5045674;28;20099;-34
2021/12/25 09:46:50;;;;;;;4.80;3.45;;;;;;;;;;5045403;28;20036;-35
2021/12/25 09:49:16;;;;;;;5.47;3.70;;;;;;;;;;5046018;28;20135;-31
2021/12/25 09:51:41;;;;;;;4.22;3.50;;;;;;;;;;5045788;28;20739;-35
2021/12/25 09:54:09;;;;;;;4.55;3.67;;;;;;;;;;5046123;28;20021;-34
2021/12/25 09:56:35;;;;;;;4.18;3.33;;;;;;;;;;5045566;28;20031;-35
2021/12/25 09:59:01;;;;;;;4.75;3.60;;;;;;;;;;5038683;28;20036;-31
2021/12/25 10:01:40;;;;;;;4.55;3.30;;;;;;;;;;5044234;28;20029;-33
2021/12/25 10:04:07;;;;;;;4.82;3.78;;;;;;;;;;5044630;28;20037;-31
2021/12/25 10:06:36;;;;;;;3.83;3.33;;;;;;;;;;5041838;28;20104;-30
2021/12/25 10:09:18;;;;;;;4.93;3.80;;;;;;;;;;5039324;28;20080;-34
2021/12/25 10:12:15;;;;;;;5.07;3.70;;;;;;;;;;5044075;28;20041;-29
2021/12/25 10:14:43;;;;;;;5.00;3.90;;;;;;;;;;5038023;28;20048;-33
2021/12/25 10:17:14;;;;;;;4.80;3.83;;;;;;;;;;5042079;28;20033;-33
2021/12/25 10:19:39;;;;;;;4.85;3.92;;;;;;;;;;5044687;28;20021;-33
2021/12/25 10:22:09;;;;;;;5.07;4.03;;;;;;;;;;5044971;28;20021;-33
2021/12/25 10:24:47;;;;;;;5.60;3.85;;;;;;;;;;5025482;28;20026;-29
2021/12/25 10:27:20;;;;;;;4.93;3.85;;;;;;;;;;5025419;28;20096;-36
2021/12/25 10:29:45;;;;;;;4.60;4.00;;;;;;;;;;5025328;28;20029;-35
2021/12/25 10:32:22;;;;;;;6.28;4.40;;;;;;;;;;5025460;28;20037;-32
2021/12/25 10:34:48;;;;;;;5.53;3.95;;;;;;;;;;5025515;28;20037;-34
2021/12/25 10:37:15;;;;;;;5.32;4.18;;;;;;;;;;5025268;28;20068;-33
2021/12/25 10:39:40;;;;;;;4.63;3.65;;;;;;;;;;5024885;28;20739;-34
2021/12/25 10:42:12;;;;;;;5.68;4.60;;;;;;;;;;5025701;28;20026;-32
2021/12/25 10:44:40;;;;;;;5.90;4.47;;;;;;;;;;5024641;28;20037;-30
2021/12/25 10:47:08;;;;;;;5.68;3.83;;;;;;;;;;5025581;28;20112;-30
2021/12/25 10:49:38;;;;;;;5.55;4.07;;;;;;;;;;5044887;28;20103;-32
2021/12/25 10:52:10;;;;;;;5.18;3.90;;;;;;;;;;5044865;28;20029;-30
2021/12/25 10:54:39;;;;;;;5.85;3.90;;;;;;;;;;5045269;28;20078;-31
2021/12/25 10:57:05;;;;;;;5.03;3.85;;;;;;;;;;5044660;28;20040;-30
2021/12/25 10:59:41;;;;;;;5.25;4.07;;;;;;;;;;5036481;28;20034;-33
2021/12/25 11:02:06;;;;;;;5.57;4.10;;;;;;;;;;5025105;28;20794;-33
2021/12/25 11:04:36;;;;;;;4.88;3.90;;;;;;;;;;5023338;28;20037;-35
2021/12/25 11:07:15;;;;;;;5.75;4.07;;;;;;;;;;5024453;28;20054;-30
2021/12/25 11:09:40;;;;;;;6.65;4.68;;;;;;;;;;5024412;28;20030;-36
2021/12/25 11:12:22;;;;;;;4.88;3.90;;;;;;;;;;5024653;28;20049;-30
2021/12/25 11:14:47;;;;;;;5.47;4.07;;;;;;;;;;5024617;28;20808;-31
2021/12/25 11:17:23;;;;;;;5.65;4.43;;;;;;;;;;5025032;28;20029;-33
2021/12/25 11:19:58;;;;;;;6.80;4.15;;;;;;;;;;5024292;28;20030;-32
2021/12/25 11:22:25;;;;;;;6.00;4.45;;;;;;;;;;5024355;28;20064;-30
2021/12/25 11:24:51;;;;;;;6.53;4.35;;;;;;;;;;5024434;28;20047;-32
2021/12/25 11:27:16;;;;;;;6.20;4.57;;;;;;;;;;5024550;28;20037;-29
2021/12/25 11:29:42;;;;;;;4.55;3.78;;;;;;;;;;5022677;28;20407;-32
2021/12/25 11:32:12;;;;;;;6.55;4.40;;;;;;;;;;5023297;28;20121;-30
2021/12/25 11:34:37;;;;;;;6.13;4.40;;;;;;;;;;5029868;28;20056;-38
2021/12/25 11:37:03;;;;;;;5.60;4.38;;;;;;;;;;5043965;28;20395;-30
2021/12/25 11:39:29;;;;;;;6.20;4.22;;;;;;;;;;5043602;28;20045;-35
2021/12/25 11:42:00;;;;;;;6.07;4.57;;;;;;;;;;5044003;28;20041;-32
2021/12/25 11:44:35;;;;;;;5.68;4.22;;;;;;;;;;5043885;28;20147;-29
2021/12/25 11:47:02;;;;;;;5.68;4.30;;;;;;;;;;5034841;28;20040;-34
2021/12/25 11:49:27;;;;;;;6.05;4.35;;;;;;;;;;5023798;28;20033;-35
2021/12/25 11:51:53;;;;;;;5.93;4.38;;;;;;;;;;5023903;28;20032;-35
2021/12/25 11:57:10;;;;;;;6.57;4.82;;;;;;;;;;5024152;28;20111;-31
2021/12/25 11:59:47;;;;;;;6.75;4.38;;;;;;;;;;5023900;28;20048;-30
2021/12/25 12:02:42;;;;;;;5.75;4.38;;;;;;;;;;5023752;28;20114;-30
2021/12/25 12:05:29;;;;;;;6.20;4.60;;;;;;;;;;5023764;28;20040;-31
2021/12/25 12:08:03;;;;;;;6.32;4.40;;;;;;;;;;5023439;28;20053;-32
2021/12/25 12:10:44;;;;;;;6.32;4.63;;;;;;;;;;5023386;28;20022;-34
2021/12/25 12:13:24;;;;;;;7.78;5.25;;;;;;;;;;5023502;28;20103;-31
2021/12/25 12:15:51;;;;;;;6.18;4.53;;;;;;;;;;5021672;28;20033;-34
2021/12/25 12:18:27;;;;;;;7.20;4.93;;;;;;;;;;5023496;28;20049;-29
2021/12/25 12:21:05;;;;;;;5.80;4.25;;;;;;;;;;5023296;28;20052;-33
2021/12/25 12:26:48;;;;;;;7.00;4.57;;;;;;;;;;5023592;28;20029;-28
2021/12/25 12:29:14;;;;;;;6.00;4.47;;;;;;;;;;5023086;28;20033;-30
2021/12/25 12:31:46;;;;;;;6.95;4.75;;;;;;;;;;5022854;28;20040;-32
2021/12/25 12:34:30;;;;;;;6.38;4.60;;;;;;;;;;5023133;28;20033;-31
2021/12/25 12:37:13;;;;;;;8.68;4.93;;;;;;;;;;5023406;28;20030;-30
2021/12/25 12:39:55;;;;;;;6.00;4.30;;;;;;;;;;5022646;28;20033;-31
2021/12/25 12:45:11;;;;;;;6.07;4.45;;;;;;;;;;5023312;28;20523;-35
2021/12/25 12:47:37;;;;;;;6.80;4.38;;;;;;;;;;5023108;28;20044;-34
2021/12/25 12:50:05;;;;;;;6.57;4.70;;;;;;;;;;5022817;28;20033;-34
2021/12/25 12:52:36;;;;;;;6.68;4.60;;;;;;;;;;5022985;28;20099;-32
2021/12/25 12:55:28;;;;;;;4.80;4.05;;;;;;;;;;5023392;28;20112;-31
2021/12/25 12:58:29;;;;;;;6.05;4.40;;;;;;;;;;5020204;28;20046;-31
2021/12/25 13:00:56;;;;;;;6.57;4.50;;;;;;;;;;4961281;28;20621;-29
2021/12/25 13:03:22;;;;;;;5.63;4.28;;;;;;;;;;5010135;28;20080;-33
2021/12/25 13:05:52;;;;;;;6.05;4.55;;;;;;;;;;5023031;28;20099;-32
2021/12/25 13:08:19;;;;;;;7.30;4.70;;;;;;;;;;5022737;28;20103;-32
2021/12/25 13:10:51;;;;;;;6.78;4.35;;;;;;;;;;5021599;28;20196;-33
2021/12/25 13:13:31;;;;;;;7.72;4.97;;;;;;;;;;5038354;28;20125;-34
2021/12/25 13:15:59;;;;;;;5.90;4.45;;;;;;;;;;5022528;28;20503;-32
2021/12/25 13:18:29;;;;;;;5.57;4.38;;;;;;;;;;5023093;28;20041;-33
2021/12/25 13:20:55;;;;;;;5.53;4.00;;;;;;;;;;5023284;28;20087;-32
2021/12/25 13:23:25;;;;;;;5.40;4.22;;;;;;;;;;5022846;28;20041;-30
2021/12/25 13:26:01;;;;;;;4.68;4.00;;;;;;;;;;5022634;28;20992;-32
2021/12/25 13:28:28;;;;;;;5.78;4.35;;;;;;;;;;5022567;28;20029;-35
2021/12/25 13:30:59;;;;;;;5.93;4.00;;;;;;;;;;5022606;28;20064;-32
2021/12/25 13:33:25;;;;;;;5.57;3.90;;;;;;;;;;5022825;28;20041;-32
2021/12/25 13:36:04;;;;;;;5.68;4.25;;;;;;;;;;5022702;28;20037;-32
2021/12/25 13:39:01;;;;;;;5.53;4.15;;;;;;;;;;5022757;28;20044;-29
2021/12/25 13:41:26;;;;;;;6.40;4.45;;;;;;;;;;5040737;28;20418;-28
2021/12/25 13:44:06;;;;;;;5.75;4.20;;;;;;;;;;5042413;28;20400;-32
2021/12/25 13:46:59;;;;;;;5.93;4.28;;;;;;;;;;5041855;28;20025;-34
2021/12/25 13:49:35;;;;;;;6.07;4.25;;;;;;;;;;5032186;28;20045;-31
2021/12/25 13:52:04;;;;;;;5.70;4.28;;;;;;;;;;5042137;28;20045;-29
2021/12/25 13:54:29;;;;;;;6.15;4.35;;;;;;;;;;5042160;28;20033;-34
2021/12/25 13:56:55;;;;;;;6.80;4.60;;;;;;;;;;5045083;28;20037;-36
2021/12/25 13:59:20;;;;;;;6.75;4.70;;;;;;;;;;5045376;28;20041;-30
2021/12/25 14:01:58;;;;;;;7.18;5.10;;;;;;;;;;5045868;28;20064;-31
2021/12/25 14:04:23;;;;;;;6.93;4.55;;;;;;;;;;5045710;28;20028;-29
2021/12/25 14:06:49;;;;;;;5.63;4.18;;;;;;;;;;5045600;28;20074;-34
2021/12/25 14:09:14;;;;;;;5.15;4.03;;;;;;;;;;5045914;28;20036;-30
2021/12/25 14:11:56;;;;;;;7.03;4.78;;;;;;;;;;5045719;28;20261;-36
2021/12/25 14:14:23;;;;;;;6.68;4.40;;;;;;;;;;5046060;28;20505;-30
2021/12/25 14:16:49;;;;;;;6.55;4.78;;;;;;;;;;5044469;28;20457;-30
2021/12/25 14:19:14;;;;;;;5.90;4.18;;;;;;;;;;5045680;28;20029;-35
2021/12/25 14:21:51;;;;;;;7.60;4.88;;;;;;;;;;5045407;28;20029;-32
2021/12/25 14:24:16;;;;;;;6.55;4.60;;;;;;;;;;5045077;28;20029;-32
2021/12/25 14:26:42;;;;;;;5.97;4.80;;;;;;;;;;5045519;28;20032;-33
2021/12/25 14:29:23;;;;;;;7.00;4.93;;;;;;;;;;5045520;28;20025;-33
2021/12/25 14:31:49;;;;;;;7.13;4.53;;;;;;;;;;5045009;28;20044;-32
2021/12/25 14:34:15;;;;;;;6.78;4.43;;;;;;;;;;5045511;28;20036;-30
2021/12/25 14:36:41;;;;;;;7.60;4.90;;;;;;;;;;5045574;28;20404;-29
2021/12/25 14:39:07;;;;;;;6.20;4.50;;;;;;;;;;5045497;28;20131;-30
2021/12/25 14:41:35;;;;;;;6.45;4.72;;;;;;;;;;5045238;28;20033;-31
2021/12/25 14:44:24;;;;;;;6.47;4.90;;;;;;;;;;5045202;28;20029;-32
2021/12/25 14:47:11;;;;;;;5.82;4.50;;;;;;;;;;5044541;28;20055;-36
2021/12/25 14:49:45;;;;;;;6.30;4.53;;;;;;;;;;5045416;28;20059;-32
2021/12/25 14:52:14;;;;;;;7.00;4.63;;;;;;;;;;5044696;28;20037;-32
2021/12/25 14:54:42;;;;;;;6.60;4.60;;;;;;;;;;5044578;28;20025;-31
2021/12/25 14:57:08;;;;;;;5.97;4.55;;;;;;;;;;5044961;28;20032;-33
2021/12/25 14:59:35;;;;;;;6.10;4.70;;;;;;;;;;5043927;28;20029;-32
2021/12/25 15:02:01;;;;;;;6.05;4.40;;;;;;;;;;5026927;28;20149;-31
2021/12/25 15:04:29;;;;;;;6.30;4.45;;;;;;;;;;5044922;28;20041;-31
2021/12/25 15:07:14;;;;;;;8.93;4.55;;;;;;;;;;5044801;28;20051;-31
2021/12/25 15:09:42;;;;;;;6.13;4.32;;;;;;;;;;5044121;28;20048;-30
2021/12/25 15:12:20;;;;;;;5.95;4.30;;;;;;;;;;5044360;28;20021;-32
2021/12/25 15:14:48;;;;;;;5.78;4.32;;;;;;;;;;5044702;28;20033;-32
2021/12/25 15:17:16;;;;;;;6.13;4.18;;;;;;;;;;5044112;28;20483;-33
2021/12/25 15:19:46;;;;;;;6.93;4.38;;;;;;;;;;5044359;28;20037;-30
2021/12/25 15:22:17;;;;;;;7.55;4.63;;;;;;;;;;5044277;28;20486;-33
2021/12/25 15:25:04;;;;;;;6.50;4.90;;;;;;;;;;5044073;28;20041;-31
2021/12/25 15:27:41;;;;;;;6.30;4.30;;;;;;;;;;5044156;28;20039;-35
2021/12/25 15:30:12;;;;;;;7.38;4.30;;;;;;;;;;5044540;28;20036;-33
2021/12/25 15:32:42;;;;;;;7.32;4.68;;;;;;;;;;5044056;28;20024;-35
2021/12/25 15:35:09;;;;;;;5.60;4.35;;;;;;;;;;5044173;28;20028;-34
2021/12/25 15:37:39;;;;;;;5.72;4.50;;;;;;;;;;5038070;28;20539;-30
2021/12/25 15:40:12;;;;;;;5.68;4.13;;;;;;;;;;5024186;28;20104;-32
2021/12/25 15:42:37;;;;;;;7.32;5.22;;;;;;;;;;5023823;28;20565;-33
2021/12/25 15:45:03;;;;;;;5.32;4.10;;;;;;;;;;5024024;28;20124;-31
2021/12/25 15:47:30;;;;;;;5.57;4.25;;;;;;;;;;5024363;28;20037;-33
2021/12/25 15:49:55;;;;;;;5.55;3.88;;;;;;;;;;5024022;28;20072;-30
2021/12/25 15:52:21;;;;;;;6.85;4.80;;;;;;;;;;5023875;28;20073;-31
2021/12/25 15:54:46;;;;;;;5.13;3.88;;;;;;;;;;5023641;28;20044;-32
2021/12/25 15:57:13;;;;;;;5.78;4.07;;;;;;;;;;5025561;28;20116;-32
2021/12/25 15:59:38;;;;;;;6.07;4.40;;;;;;;;;;5038961;28;20036;-32
2021/12/25 16:02:09;;;;;;;10.52;4.90;;;;;;;;;;5043642;28;20029;-31
2021/12/25 16:04:35;;;;;;;12.98;6.60;;;;;;;;;;5043294;28;20530;-30
2021/12/25 16:07:02;;;;;;;16.85;8.48;;;;;;;;;;5040636;28;20536;-32
2021/12/25 16:09:28;;;;;;;14.45;7.70;;;;;;;;;;5025173;28;20640;-34
2021/12/25 16:11:55;;;;;;;20.15;7.68;;;;;;;;;;5024424;28;20057;-29
2021/12/25 16:14:20;;;;;;;13.05;7.38;;;;;;;;;;5030876;28;20048;-33